sensor_id;sensor_type;location;lat;lon;timestamp;pressure;altitude;pressure_sealevel;temperature;humidity
21109;BME280;10712;52.944;9.098;2023-03-05T00:00:47;101767.31;;;11.13;52.53
21109;BME280;10712;52.944;9.098;2023-03-05T00:03:13;101763.63;;;11.16;52.30
21109;BME280;10712;52.944;9.098;2023-03-05T00:05:39;101766.28;;;11.16;52.27
21109;BME280;10712;52.944;9.098;2023-03-05T00:08:05;101756.28;;;11.21;52.05
21109;BME280;10712;52.944;9.098;2023-03-05T00:10:31;101744.03;;;11.17;52.28
21109;BME280;10712;52.944;9.098;2023-03-05T00:12:58;101743.22;;;11.15;52.00
21109;BME280;10712;52.944;9.098;2023-03-05T00:15:24;101745.25;;;11.10;52.17
21109;BME280;10712;52.944;9.098;2023-03-05T00:17:49;101742.56;;;11.10;52.22
21109;BME280;10712;52.944;9.098;2023-03-05T00:20:16;101742.56;;;11.10;52.16
21109;BME280;10712;52.944;9.098;2023-03-05T00:22:42;101731.97;;;11.08;52.38
21109;BME280;10712;52.944;9.098;2023-03-05T00:25:08;101733.47;;;11.14;52.14
21109;BME280;10712;52.944;9.098;2023-03-05T00:27:34;101735.38;;;11.12;51.99
21109;BME280;10712;52.944;9.098;2023-03-05T00:30:00;101736.09;;;11.15;52.17
21109;BME280;10712;52.944;9.098;2023-03-05T00:32:26;101727.38;;;11.12;52.14
21109;BME280;10712;52.944;9.098;2023-03-05T00:34:51;101727.47;;;11.29;51.68
21109;BME280;10712;52.944;9.098;2023-03-05T00:37:18;101728.03;;;11.17;51.89
21109;BME280;10712;52.944;9.098;2023-03-05T00:39:44;101726.25;;;11.36;51.43
21109;BME280;10712;52.944;9.098;2023-03-05T00:42:10;101721.47;;;11.24;51.74
21109;BME280;10712;52.944;9.098;2023-03-05T00:44:36;101719.41;;;11.30;51.78
21109;BME280;10712;52.944;9.098;2023-03-05T00:47:01;101710.06;;;11.20;51.72
21109;BME280;10712;52.944;9.098;2023-03-05T00:49:27;101717.22;;;11.20;51.83
21109;BME280;10712;52.944;9.098;2023-03-05T00:51:53;101713.59;;;11.21;51.74
21109;BME280;10712;52.944;9.098;2023-03-05T00:54:19;101710.00;;;11.22;51.79
21109;BME280;10712;52.944;9.098;2023-03-05T00:56:45;101704.53;;;11.25;51.72
21109;BME280;10712;52.944;9.098;2023-03-05T00:59:11;101698.41;;;11.23;51.72
21109;BME280;10712;52.944;9.098;2023-03-05T01:01:39;101707.22;;;11.25;51.59
21109;BME280;10712;52.944;9.098;2023-03-05T01:04:05;101706.28;;;11.26;51.99
21109;BME280;10712;52.944;9.098;2023-03-05T01:06:30;101706.41;;;11.23;51.83
21109;BME280;10712;52.944;9.098;2023-03-05T01:08:56;101706.41;;;11.23;51.85
21109;BME280;10712;52.944;9.098;2023-03-05T01:11:23;101708.94;;;11.26;51.88
21109;BME280;10712;52.944;9.098;2023-03-05T01:13:49;101699.22;;;11.25;51.79
21109;BME280;10712;52.944;9.098;2023-03-05T01:16:15;101700.16;;;11.24;51.80
21109;BME280;10712;52.944;9.098;2023-03-05T01:18:41;101702.81;;;11.24;51.93
21109;BME280;10712;52.944;9.098;2023-03-05T01:21:07;101686.94;;;11.21;52.09
21109;BME280;10712;52.944;9.098;2023-03-05T01:23:33;101690.13;;;11.29;52.19
21109;BME280;10712;52.944;9.098;2023-03-05T01:26:02;101686.94;;;11.21;51.89
21109;BME280;10712;52.944;9.098;2023-03-05T01:28:28;101684.06;;;11.25;52.08
21109;BME280;10712;52.944;9.098;2023-03-05T01:30:54;101684.78;;;11.29;52.21
21109;BME280;10712;52.944;9.098;2023-03-05T01:33:20;101679.44;;;11.29;52.21
21109;BME280;10712;52.944;9.098;2023-03-05T01:35:48;101679.59;;;11.26;52.20
21109;BME280;10712;52.944;9.098;2023-03-05T01:38:15;101682.97;;;11.29;52.30
21109;BME280;10712;52.944;9.098;2023-03-05T01:40:42;101667.03;;;11.28;52.30
21109;BME280;10712;52.944;9.098;2023-03-05T01:45:38;101663.88;;;11.20;52.57
21109;BME280;10712;52.944;9.098;2023-03-05T01:48:23;101664.03;;;11.17;52.28
21109;BME280;10712;52.944;9.098;2023-03-05T01:50:49;101656.81;;;11.19;52.65
21109;BME280;10712;52.944;9.098;2023-03-05T01:53:15;101655.22;;;11.15;52.91
21109;BME280;10712;52.944;9.098;2023-03-05T01:55:41;101656.09;;;11.15;52.58
21109;BME280;10712;52.944;9.098;2023-03-05T01:58:10;101649.75;;;11.18;52.74
21109;BME280;10712;52.944;9.098;2023-03-05T02:00:42;101646.50;;;11.11;52.63
21109;BME280;10712;52.944;9.098;2023-03-05T02:03:11;101639.50;;;11.09;52.91
21109;BME280;10712;52.944;9.098;2023-03-05T02:05:40;101638.50;;;11.11;52.82
21109;BME280;10712;52.944;9.098;2023-03-05T02:08:13;101633.09;;;11.13;52.77
21109;BME280;10712;52.944;9.098;2023-03-05T02:10:50;101635.91;;;11.10;52.56
21109;BME280;10712;52.944;9.098;2023-03-05T02:13:22;101632.44;;;11.07;52.82
21109;BME280;10712;52.944;9.098;2023-03-05T02:15:52;101632.59;;;11.04;52.83
21109;BME280;10712;52.944;9.098;2023-03-05T02:18:19;101627.38;;;11.01;53.01
21109;BME280;10712;52.944;9.098;2023-03-05T02:23:27;101611.38;;;11.01;53.30
21109;BME280;10712;52.944;9.098;2023-03-05T02:25:53;101613.25;;;10.99;53.04
21109;BME280;10712;52.944;9.098;2023-03-05T02:31:13;101600.88;;;10.98;53.01
21109;BME280;10712;52.944;9.098;2023-03-05T02:33:40;101604.03;;;11.06;52.99
21109;BME280;10712;52.944;9.098;2023-03-05T02:36:07;101599.66;;;11.05;53.10
21109;BME280;10712;52.944;9.098;2023-03-05T02:38:33;101597.13;;;11.02;52.86
21109;BME280;10712;52.944;9.098;2023-03-05T02:40:59;101594.59;;;10.99;53.11
21109;BME280;10712;52.944;9.098;2023-03-05T02:43:26;101593.81;;;10.97;53.08
21109;BME280;10712;52.944;9.098;2023-03-05T02:45:52;101588.19;;;11.03;52.98
21109;BME280;10712;52.944;9.098;2023-03-05T02:48:19;101589.25;;;10.99;53.10
21109;BME280;10712;52.944;9.098;2023-03-05T02:50:46;101586.75;;;10.96;53.08
21109;BME280;10712;52.944;9.098;2023-03-05T02:53:12;101583.91;;;10.99;53.12
21109;BME280;10712;52.944;9.098;2023-03-05T02:55:38;101585.88;;;10.96;53.15
21109;BME280;10712;52.944;9.098;2023-03-05T02:58:04;101579.56;;;10.98;53.25
21109;BME280;10712;52.944;9.098;2023-03-05T03:00:30;101583.84;;;11.01;53.44
21109;BME280;10712;52.944;9.098;2023-03-05T03:02:56;101581.25;;;10.99;53.30
21109;BME280;10712;52.944;9.098;2023-03-05T03:05:22;101575.09;;;10.99;53.31
21109;BME280;10712;52.944;9.098;2023-03-05T03:07:48;101573.47;;;11.14;53.19
21109;BME280;10712;52.944;9.098;2023-03-05T03:10:15;101567.56;;;11.07;53.30
21109;BME280;10712;52.944;9.098;2023-03-05T03:12:43;101566.69;;;11.06;53.12
21109;BME280;10712;52.944;9.098;2023-03-05T03:15:13;101566.78;;;11.05;53.03
21109;BME280;10712;52.944;9.098;2023-03-05T03:17:40;101561.88;;;10.96;53.19
21109;BME280;10712;52.944;9.098;2023-03-05T03:20:10;101549.13;;;11.02;53.08
21109;BME280;10712;52.944;9.098;2023-03-05T03:22:36;101558.22;;;10.98;53.05
21109;BME280;10712;52.944;9.098;2023-03-05T03:25:03;101541.47;;;10.95;53.05
21109;BME280;10712;52.944;9.098;2023-03-05T03:27:29;101546.88;;;10.93;53.12
21109;BME280;10712;52.944;9.098;2023-03-05T03:29:55;101537.19;;;10.92;53.20
21109;BME280;10712;52.944;9.098;2023-03-05T03:32:21;101541.41;;;10.96;52.96
21109;BME280;10712;52.944;9.098;2023-03-05T03:34:46;101537.19;;;10.92;53.01
21109;BME280;10712;52.944;9.098;2023-03-05T03:37:13;101541.66;;;10.92;53.01
21109;BME280;10712;52.944;9.098;2023-03-05T03:39:39;101532.56;;;10.96;52.96
21109;BME280;10712;52.944;9.098;2023-03-05T03:42:05;101529.97;;;10.94;52.79
21109;BME280;10712;52.944;9.098;2023-03-05T03:44:31;101528.59;;;11.04;52.76
21109;BME280;10712;52.944;9.098;2023-03-05T03:46:57;101535.22;;;10.96;52.95
21109;BME280;10712;52.944;9.098;2023-03-05T03:49:25;101528.22;;;10.93;52.86
21109;BME280;10712;52.944;9.098;2023-03-05T03:51:52;101527.34;;;10.93;52.86
21109;BME280;10712;52.944;9.098;2023-03-05T03:54:22;101517.44;;;10.96;52.77
21109;BME280;10712;52.944;9.098;2023-03-05T03:56:49;101512.72;;;11.01;52.73
21109;BME280;10712;52.944;9.098;2023-03-05T03:59:15;101511.94;;;10.99;52.69
21109;BME280;10712;52.944;9.098;2023-03-05T04:01:41;101511.22;;;10.96;52.92
21109;BME280;10712;52.944;9.098;2023-03-05T04:04:07;101506.88;;;10.93;52.65
21109;BME280;10712;52.944;9.098;2023-03-05T04:06:33;101513.03;;;10.95;52.83
21109;BME280;10712;52.944;9.098;2023-03-05T04:08:59;101510.22;;;10.98;52.92
21109;BME280;10712;52.944;9.098;2023-03-05T04:11:25;101506.88;;;10.93;53.08
21109;BME280;10712;52.944;9.098;2023-03-05T04:13:51;101503.16;;;10.97;52.90
21109;BME280;10712;52.944;9.098;2023-03-05T04:16:19;101499.41;;;11.01;52.91
21109;BME280;10712;52.944;9.098;2023-03-05T04:18:46;101503.16;;;10.97;53.13
21109;BME280;10712;52.944;9.098;2023-03-05T04:21:12;101493.44;;;10.96;53.11
21109;BME280;10712;52.944;9.098;2023-03-05T04:23:38;101498.75;;;10.96;53.20
21109;BME280;10712;52.944;9.098;2023-03-05T04:26:04;101500.19;;;11.03;53.25
21109;BME280;10712;52.944;9.098;2023-03-05T04:28:31;101503.22;;;10.96;53.12
21109;BME280;10712;52.944;9.098;2023-03-05T04:30:57;101496.09;;;10.96;53.57
21109;BME280;10712;52.944;9.098;2023-03-05T04:33:23;101491.75;;;11.13;53.17
21109;BME280;10712;52.944;9.098;2023-03-05T04:35:49;101481.53;;;11.03;53.06
21109;BME280;10712;52.944;9.098;2023-03-05T04:38:15;101491.06;;;10.90;53.05
21109;BME280;10712;52.944;9.098;2023-03-05T04:40:41;101484.13;;;10.86;53.48
21109;BME280;10712;52.944;9.098;2023-03-05T04:43:07;101475.56;;;10.80;53.52
21109;BME280;10712;52.944;9.098;2023-03-05T04:45:33;101472.19;;;10.76;53.58
21109;BME280;10712;52.944;9.098;2023-03-05T04:47:59;101477.38;;;10.79;53.61
21109;BME280;10712;52.944;9.098;2023-03-05T04:50:25;101470.47;;;10.75;53.66
21109;BME280;10712;52.944;9.098;2023-03-05T04:52:51;101469.59;;;10.75;54.03
21109;BME280;10712;52.944;9.098;2023-03-05T04:55:17;101460.50;;;10.79;53.83
21109;BME280;10712;52.944;9.098;2023-03-05T04:57:44;101466.94;;;10.75;54.13
21109;BME280;10712;52.944;9.098;2023-03-05T05:00:14;101456.78;;;10.83;53.95
21109;BME280;10712;52.944;9.098;2023-03-05T05:02:47;101466.56;;;10.82;54.00
21109;BME280;10712;52.944;9.098;2023-03-05T05:05:18;101466.69;;;10.79;54.15
21109;BME280;10712;52.944;9.098;2023-03-05T05:07:44;101462.97;;;10.83;54.22
21109;BME280;10712;52.944;9.098;2023-03-05T05:10:13;101455.03;;;10.82;54.20
21109;BME280;10712;52.944;9.098;2023-03-05T05:12:40;101458.44;;;10.85;54.14
21109;BME280;10712;52.944;9.098;2023-03-05T05:15:07;101455.78;;;10.85;54.22
21109;BME280;10712;52.944;9.098;2023-03-05T05:17:34;101459.19;;;10.87;54.14
21109;BME280;10712;52.944;9.098;2023-03-05T05:20:02;101441.66;;;10.83;54.20
21109;BME280;10712;52.944;9.098;2023-03-05T05:22:31;101441.47;;;10.86;54.26
21109;BME280;10712;52.944;9.098;2023-03-05T05:24:57;101446.25;;;10.80;54.68
21109;BME280;10712;52.944;9.098;2023-03-05T05:27:23;101442.88;;;10.76;54.16
21109;BME280;10712;52.944;9.098;2023-03-05T05:29:49;101444.69;;;10.76;54.36
21109;BME280;10712;52.944;9.098;2023-03-05T05:32:22;101443.69;;;10.78;54.26
21109;BME280;10712;52.944;9.098;2023-03-05T05:34:53;101436.44;;;10.80;54.11
21109;BME280;10712;52.944;9.098;2023-03-05T05:37:20;101438.34;;;10.78;54.25
21109;BME280;10712;52.944;9.098;2023-03-05T05:39:46;101439.19;;;10.79;54.14
21109;BME280;10712;52.944;9.098;2023-03-05T05:42:20;101439.13;;;10.80;54.12
21109;BME280;10712;52.944;9.098;2023-03-05T05:44:46;101445.53;;;10.76;54.16
21109;BME280;10712;52.944;9.098;2023-03-05T05:47:14;101434.72;;;10.79;54.00
21109;BME280;10712;52.944;9.098;2023-03-05T05:49:40;101435.59;;;10.80;53.96
21109;BME280;10712;52.944;9.098;2023-03-05T05:52:06;101438.34;;;10.78;53.92
21109;BME280;10712;52.944;9.098;2023-03-05T05:54:33;101438.53;;;10.74;54.46
21109;BME280;10712;52.944;9.098;2023-03-05T05:56:59;101439.19;;;10.79;54.15
21109;BME280;10712;52.944;9.098;2023-03-05T05:59:25;101438.19;;;10.81;54.12
21109;BME280;10712;52.944;9.098;2023-03-05T06:01:51;101431.91;;;10.82;54.04
21109;BME280;10712;52.944;9.098;2023-03-05T06:04:16;101430.06;;;10.84;54.18
21109;BME280;10712;52.944;9.098;2023-03-05T06:06:42;101433.72;;;10.82;54.10
21109;BME280;10712;52.944;9.098;2023-03-05T06:09:08;101427.69;;;10.78;54.25
21109;BME280;10712;52.944;9.098;2023-03-05T06:11:34;101435.19;;;10.70;54.46
21109;BME280;10712;52.944;9.098;2023-03-05T06:14:00;101431.41;;;10.74;54.36
21109;BME280;10712;52.944;9.098;2023-03-05T06:16:29;101431.34;;;10.76;54.18
21109;BME280;10712;52.944;9.098;2023-03-05T06:18:55;101432.22;;;10.76;54.18
21109;BME280;10712;52.944;9.098;2023-03-05T06:21:22;101435.69;;;10.78;54.06
21109;BME280;10712;52.944;9.098;2023-03-05T06:23:48;101436.44;;;10.80;54.18
21109;BME280;10712;52.944;9.098;2023-03-05T06:26:19;101440.50;;;10.70;54.25
21109;BME280;10712;52.944;9.098;2023-03-05T06:28:45;101441.44;;;10.69;54.21
21109;BME280;10712;52.944;9.098;2023-03-05T06:31:17;101441.72;;;10.63;54.25
21109;BME280;10712;52.944;9.098;2023-03-05T06:33:43;101438.28;;;10.61;54.26
21109;BME280;10712;52.944;9.098;2023-03-05T06:36:16;101438.50;;;10.56;54.22
21109;BME280;10712;52.944;9.098;2023-03-05T06:38:43;101443.91;;;10.55;54.33
21109;BME280;10712;52.944;9.098;2023-03-05T06:41:13;101443.91;;;10.55;54.09
21109;BME280;10712;52.944;9.098;2023-03-05T06:43:43;101446.84;;;10.49;54.25
21109;BME280;10712;52.944;9.098;2023-03-05T06:46:26;101453.03;;;10.49;54.36
21109;BME280;10712;52.944;9.098;2023-03-05T06:48:55;101446.69;;;10.52;54.17
21109;BME280;10712;52.944;9.098;2023-03-05T06:51:29;101445.63;;;10.56;54.00
21109;BME280;10712;52.944;9.098;2023-03-05T06:54:01;101450.16;;;10.54;54.12
21109;BME280;10712;52.944;9.098;2023-03-05T06:56:27;101449.84;;;10.60;53.91
21109;BME280;10712;52.944;9.098;2023-03-05T06:58:53;101449.84;;;10.60;54.09
21109;BME280;10712;52.944;9.098;2023-03-05T07:01:20;101441.81;;;10.61;54.26
21109;BME280;10712;52.944;9.098;2023-03-05T07:03:53;101451.59;;;10.61;54.36
21109;BME280;10712;52.944;9.098;2023-03-05T07:06:21;101452.41;;;10.63;54.30
21109;BME280;10712;52.944;9.098;2023-03-05T07:08:47;101451.28;;;10.67;54.38
21109;BME280;10712;52.944;9.098;2023-03-05T07:11:17;101443.94;;;10.72;54.07
21109;BME280;10712;52.944;9.098;2023-03-05T07:13:43;101444.53;;;10.60;54.36
21109;BME280;10712;52.944;9.098;2023-03-05T07:16:19;101441.06;;;10.58;54.30
21109;BME280;10712;52.944;9.098;2023-03-05T07:18:45;101441.06;;;10.58;54.22
21109;BME280;10712;52.944;9.098;2023-03-05T07:21:20;101431.84;;;10.65;54.14
21109;BME280;10712;52.944;9.098;2023-03-05T07:23:46;101435.75;;;10.58;54.52
21109;BME280;10712;52.944;9.098;2023-03-05T07:26:14;101432.13;;;10.59;54.56
21109;BME280;10712;52.944;9.098;2023-03-05T07:28:41;101442.03;;;10.57;54.55
21109;BME280;10712;52.944;9.098;2023-03-05T07:31:16;101433.00;;;10.59;54.60
21109;BME280;10712;52.944;9.098;2023-03-05T07:33:45;101437.47;;;10.59;54.70
21109;BME280;10712;52.944;9.098;2023-03-05T07:36:12;101431.22;;;10.60;54.89
21109;BME280;10712;52.944;9.098;2023-03-05T07:38:39;101429.06;;;10.68;54.81
21109;BME280;10712;52.944;9.098;2023-03-05T07:41:15;101432.59;;;10.69;54.59
21109;BME280;10712;52.944;9.098;2023-03-05T07:43:50;101434.09;;;10.74;54.57
21109;BME280;10712;52.944;9.098;2023-03-05T07:46:18;101433.28;;;10.72;54.81
21109;BME280;10712;52.944;9.098;2023-03-05T07:48:44;101433.94;;;10.77;54.84
21109;BME280;10712;52.944;9.098;2023-03-05T07:51:15;101432.84;;;10.81;54.78
21109;BME280;10712;52.944;9.098;2023-03-05T07:53:43;101430.69;;;10.89;54.71
21109;BME280;10712;52.944;9.098;2023-03-05T07:56:10;101430.69;;;10.89;54.76
21109;BME280;10712;52.944;9.098;2023-03-05T07:58:36;101430.38;;;10.95;54.80
21109;BME280;10712;52.944;9.098;2023-03-05T08:01:03;101420.81;;;10.91;55.07
21109;BME280;10712;52.944;9.098;2023-03-05T08:03:29;101426.91;;;10.93;55.04
21109;BME280;10712;52.944;9.098;2023-03-05T08:05:54;101423.31;;;10.94;55.05
21109;BME280;10712;52.944;9.098;2023-03-05T08:08:20;101417.69;;;11.00;54.90
21109;BME280;10712;52.944;9.098;2023-03-05T08:10:46;101415.19;;;10.97;54.80
21109;BME280;10712;52.944;9.098;2023-03-05T08:13:12;101415.94;;;10.99;54.79
21109;BME280;10712;52.944;9.098;2023-03-05T08:15:38;101415.81;;;11.02;54.79
21109;BME280;10712;52.944;9.098;2023-03-05T08:18:04;101421.16;;;11.02;54.65
21109;BME280;10712;52.944;9.098;2023-03-05T08:20:29;101411.34;;;11.03;54.71
21109;BME280;10712;52.944;9.098;2023-03-05T08:22:55;101404.28;;;11.02;54.61
21109;BME280;10712;52.944;9.098;2023-03-05T08:25:21;101413.06;;;11.04;54.43
21109;BME280;10712;52.944;9.098;2023-03-05T08:27:48;101404.03;;;11.06;54.44
21109;BME280;10712;52.944;9.098;2023-03-05T08:30:19;101399.81;;;11.02;54.62
21109;BME280;10712;52.944;9.098;2023-03-05T08:32:48;101397.00;;;11.05;54.59
21109;BME280;10712;52.944;9.098;2023-03-05T08:35:14;101398.72;;;11.06;54.47
21109;BME280;10712;52.944;9.098;2023-03-05T08:37:40;101409.22;;;11.10;54.21
21109;BME280;10712;52.944;9.098;2023-03-05T08:40:06;101394.34;;;11.05;54.16
21109;BME280;10712;52.944;9.098;2023-03-05T08:42:32;101398.50;;;11.11;54.23
21109;BME280;10712;52.944;9.098;2023-03-05T08:44:58;101399.06;;;11.18;53.99
21109;BME280;10712;52.944;9.098;2023-03-05T08:47:24;101388.47;;;11.16;53.88
21109;BME280;10712;52.944;9.098;2023-03-05T08:49:51;101388.22;;;11.21;53.93
21109;BME280;10712;52.944;9.098;2023-03-05T08:52:21;101382.41;;;11.30;53.71
21109;BME280;10712;52.944;9.098;2023-03-05T08:54:47;101393.38;;;11.41;53.92
21109;BME280;10712;52.944;9.098;2023-03-05T08:57:13;101389.47;;;11.48;53.75
21109;BME280;10712;52.944;9.098;2023-03-05T08:59:39;101383.06;;;11.52;54.09
21109;BME280;10712;52.944;9.098;2023-03-05T09:02:05;101376.59;;;11.56;53.77
21109;BME280;10712;52.944;9.098;2023-03-05T09:04:31;101372.06;;;11.58;53.66
21109;BME280;10712;52.944;9.098;2023-03-05T09:06:57;101382.41;;;11.64;53.61
21109;BME280;10712;52.944;9.098;2023-03-05T09:09:23;101381.78;;;11.76;53.59
21109;BME280;10712;52.944;9.098;2023-03-05T09:11:56;101378.16;;;11.77;53.62
21109;BME280;10712;52.944;9.098;2023-03-05T09:14:22;101374.22;;;11.84;53.74
21109;BME280;10712;52.944;9.098;2023-03-05T09:16:55;101367.16;;;11.83;53.11
21109;BME280;10712;52.944;9.098;2023-03-05T09:19:21;101375.09;;;11.85;53.16
21109;BME280;10712;52.944;9.098;2023-03-05T09:21:49;101374.75;;;11.91;53.22
21109;BME280;10712;52.944;9.098;2023-03-05T09:24:18;101362.66;;;12.01;53.04
21109;BME280;10712;52.944;9.098;2023-03-05T09:26:45;101366.53;;;11.96;52.76
21109;BME280;10712;52.944;9.098;2023-03-05T09:29:12;101363.59;;;12.00;52.57
21109;BME280;10712;52.944;9.098;2023-03-05T09:31:40;101362.56;;;12.03;52.27
21109;BME280;10712;52.944;9.098;2023-03-05T09:34:09;101361.78;;;12.01;51.70
21109;BME280;10712;52.944;9.098;2023-03-05T09:36:36;101357.72;;;11.94;51.37
21109;BME280;10712;52.944;9.098;2023-03-05T09:39:04;101361.38;;;12.08;51.35
21109;BME280;10712;52.944;9.098;2023-03-05T09:44:39;101358.44;;;12.13;51.41
21109;BME280;10712;52.944;9.098;2023-03-05T09:50:53;101363.63;;;12.32;51.38
21109;BME280;10712;52.944;9.098;2023-03-05T09:56:28;101355.09;;;12.25;50.86
21109;BME280;10712;52.944;9.098;2023-03-05T09:59:19;101363.09;;;12.25;50.23
21109;BME280;10712;52.944;9.098;2023-03-05T10:01:50;101350.88;;;12.21;50.15
21109;BME280;10712;52.944;9.098;2023-03-05T10:04:25;101351.66;;;12.23;49.90
21109;BME280;10712;52.944;9.098;2023-03-05T10:07:25;101357.94;;;12.22;50.16
21109;BME280;10712;52.944;9.098;2023-03-05T10:10:25;101356.03;;;12.24;50.21
21109;BME280;10712;52.944;9.098;2023-03-05T10:13:01;101340.38;;;12.34;50.46
21109;BME280;10712;52.944;9.098;2023-03-05T10:18:45;101341.81;;;12.39;49.99
21109;BME280;10712;52.944;9.098;2023-03-05T10:21:49;101335.38;;;12.43;49.99
21109;BME280;10712;52.944;9.098;2023-03-05T10:24:22;101334.84;;;12.21;49.89
21109;BME280;10712;52.944;9.098;2023-03-05T10:27:20;101332.06;;;12.38;49.79
21109;BME280;10712;52.944;9.098;2023-03-05T10:45:28;101306.34;;;12.83;49.84
21109;BME280;10712;52.944;9.098;2023-03-05T10:48:10;101309.19;;;12.80;49.79
21109;BME280;10712;52.944;9.098;2023-03-05T10:50:51;101308.72;;;12.87;49.63
21109;BME280;10712;52.944;9.098;2023-03-05T10:53:31;101298.72;;;12.91;49.59
21109;BME280;10712;52.944;9.098;2023-03-05T10:56:04;101306.97;;;13.02;48.67
21109;BME280;10712;52.944;9.098;2023-03-05T10:58:31;101302.03;;;12.80;47.87
21109;BME280;10712;52.944;9.098;2023-03-05T11:01:00;101294.41;;;12.88;47.75
21109;BME280;10712;52.944;9.098;2023-03-05T11:06:39;101291.75;;;12.88;47.38
21109;BME280;10712;52.944;9.098;2023-03-05T11:09:25;101277.94;;;13.10;47.58
21109;BME280;10712;52.944;9.098;2023-03-05T11:12:18;101286.59;;;13.15;47.50
21109;BME280;10712;52.944;9.098;2023-03-05T11:17:46;101274.97;;;13.30;46.39
21109;BME280;10712;52.944;9.098;2023-03-05T11:20:32;101263.41;;;13.30;46.17
21109;BME280;10712;52.944;9.098;2023-03-05T11:28:39;101275.38;;;13.09;46.10
21109;BME280;10712;52.944;9.098;2023-03-05T11:31:28;101264.75;;;12.93;46.38
21109;BME280;10712;52.944;9.098;2023-03-05T11:34:20;101268.66;;;13.01;46.55
21109;BME280;10712;52.944;9.098;2023-03-05T11:39:22;101272.00;;;12.91;46.94
21109;BME280;10712;52.944;9.098;2023-03-05T11:42:20;101261.66;;;12.85;46.60
21109;BME280;10712;52.944;9.098;2023-03-05T11:44:54;101263.38;;;12.86;46.62
21109;BME280;10712;52.944;9.098;2023-03-05T11:47:40;101253.09;;;12.64;47.57
21109;BME280;10712;52.944;9.098;2023-03-05T11:50:24;101244.66;;;12.86;47.85
21109;BME280;10712;52.944;9.098;2023-03-05T11:52:57;101245.03;;;12.94;47.97
21109;BME280;10712;52.944;9.098;2023-03-05T11:55:44;101245.53;;;13.00;48.37
21109;BME280;10712;52.944;9.098;2023-03-05T12:00:51;101228.84;;;13.11;48.78
21109;BME280;10712;52.944;9.098;2023-03-05T12:03:28;101230.75;;;13.09;48.50
21109;BME280;10712;52.944;9.098;2023-03-05T12:06:07;101223.84;;;12.91;48.35
21109;BME280;10712;52.944;9.098;2023-03-05T12:08:40;101218.50;;;12.91;48.17
21109;BME280;10712;52.944;9.098;2023-03-05T12:11:22;101222.13;;;12.90;48.01
21109;BME280;10712;52.944;9.098;2023-03-05T12:14:35;101218.75;;;12.86;48.01
21109;BME280;10712;52.944;9.098;2023-03-05T12:17:21;101208.34;;;12.82;47.98
21109;BME280;10712;52.944;9.098;2023-03-05T12:20:12;101205.47;;;12.71;47.62
21109;BME280;10712;52.944;9.098;2023-03-05T12:22:43;101200.88;;;12.73;47.79
21109;BME280;10712;52.944;9.098;2023-03-05T12:25:32;101199.06;;;12.73;47.76
21109;BME280;10712;52.944;9.098;2023-03-05T12:28:00;101193.06;;;12.70;48.17
21109;BME280;10712;52.944;9.098;2023-03-05T12:33:46;101188.13;;;12.78;48.75
21109;BME280;10712;52.944;9.098;2023-03-05T12:38:54;101169.88;;;12.84;49.18
21109;BME280;10712;52.944;9.098;2023-03-05T12:46:41;101146.97;;;13.09;49.59
21109;BME280;10712;52.944;9.098;2023-03-05T12:49:37;101149.97;;;13.32;49.19
21109;BME280;10712;52.944;9.098;2023-03-05T12:52:14;101134.94;;;13.30;48.74
21109;BME280;10712;52.944;9.098;2023-03-05T12:55:00;101135.03;;;13.43;48.66
21109;BME280;10712;52.944;9.098;2023-03-05T12:57:30;101129.88;;;13.54;48.51
21109;BME280;10712;52.944;9.098;2023-03-05T13:00:07;101123.16;;;13.61;48.14
21109;BME280;10712;52.944;9.098;2023-03-05T13:02:40;101117.00;;;13.73;48.08
21109;BME280;10712;52.944;9.098;2023-03-05T13:05:20;101120.84;;;13.69;47.88
21109;BME280;10712;52.944;9.098;2023-03-05T13:07:49;101120.03;;;13.81;47.36
21109;BME280;10712;52.944;9.098;2023-03-05T13:10:27;101113.41;;;13.87;47.12
21109;BME280;10712;52.944;9.098;2023-03-05T13:12:56;101107.22;;;13.99;47.09
21109;BME280;10712;52.944;9.098;2023-03-05T13:15:24;101103.84;;;14.09;47.07
21109;BME280;10712;52.944;9.098;2023-03-05T13:17:57;101108.56;;;14.18;46.78
21109;BME280;10712;52.944;9.098;2023-03-05T13:20:35;101104.94;;;14.19;46.71
21109;BME280;10712;52.944;9.098;2023-03-05T13:23:23;101102.78;;;14.12;46.33
21109;BME280;10712;52.944;9.098;2023-03-05T13:28:34;101095.47;;;14.01;46.50
21109;BME280;10712;52.944;9.098;2023-03-05T13:31:19;101095.66;;;13.98;46.70
21109;BME280;10712;52.944;9.098;2023-03-05T13:34:06;101085.16;;;13.95;46.84
21109;BME280;10712;52.944;9.098;2023-03-05T13:36:32;101089.00;;;13.91;46.77
21109;BME280;10712;52.944;9.098;2023-03-05T13:38:58;101080.41;;;13.86;46.92
21109;BME280;10712;52.944;9.098;2023-03-05T13:41:26;101078.91;;;13.82;46.89
21109;BME280;10712;52.944;9.098;2023-03-05T13:44:01;101074.41;;;13.83;46.80
21109;BME280;10712;52.944;9.098;2023-03-05T13:49:14;101074.78;;;13.76;47.48
21109;BME280;10712;52.944;9.098;2023-03-05T13:51:46;101069.88;;;13.83;47.50
21109;BME280;10712;52.944;9.098;2023-03-05T13:54:15;101069.50;;;13.89;47.42
21109;BME280;10712;52.944;9.098;2023-03-05T13:57:28;101067.38;;;13.94;47.40
21109;BME280;10712;52.944;9.098;2023-03-05T13:59:55;101058.38;;;13.95;47.32
21109;BME280;10712;52.944;9.098;2023-03-05T14:02:21;101057.09;;;14.01;47.63
21109;BME280;10712;52.944;9.098;2023-03-05T14:04:48;101049.25;;;13.98;47.83
21109;BME280;10712;52.944;9.098;2023-03-05T14:09:52;101046.38;;;14.01;47.85
21109;BME280;10712;52.944;9.098;2023-03-05T14:12:34;101039.22;;;14.01;47.71
21109;BME280;10712;52.944;9.098;2023-03-05T14:15:18;101033.09;;;13.99;47.17
21109;BME280;10712;52.944;9.098;2023-03-05T14:17:45;101033.13;;;14.25;46.68